createdAt,value
2023-04-17T00:02:22.076Z,6.10
2023-04-17T00:05:26.814Z,6.33
2023-04-17T00:08:31.237Z,6.03
2023-04-17T00:11:34.793Z,6.27
2023-04-17T00:14:39.676Z,5.87
2023-04-17T00:17:43.294Z,5.93
2023-04-17T00:20:46.766Z,5.67
2023-04-17T00:23:50.688Z,6.40
2023-04-17T00:26:54.251Z,5.43
2023-04-17T00:29:59.559Z,6.40
2023-04-17T00:33:03.149Z,6.33
2023-04-17T00:36:07.818Z,6.33
2023-04-17T00:39:11.632Z,6.10
2023-04-17T00:42:15.306Z,6.97
2023-04-17T00:45:21.721Z,5.50
2023-04-17T00:48:25.606Z,5.07
2023-04-17T00:51:29.504Z,5.90
2023-04-17T00:54:34.392Z,5.53
2023-04-17T00:57:38.434Z,5.43
2023-04-17T01:00:43.461Z,5.10
2023-04-17T01:03:47.239Z,6.13
2023-04-17T01:06:51.198Z,5.80
2023-04-17T01:09:55.582Z,5.50
2023-04-17T01:13:05.406Z,4.77
2023-04-17T01:16:11.889Z,5.47
2023-04-17T01:19:17.128Z,5.43
2023-04-17T01:22:21.268Z,5.70
2023-04-17T01:25:30.118Z,5.67
2023-04-17T01:28:33.680Z,5.87
2023-04-17T01:31:37.506Z,5.90
2023-04-17T01:34:41.348Z,5.97
2023-04-17T01:37:44.804Z,5.73
2023-04-17T01:40:49.909Z,6.33
2023-04-17T01:43:53.344Z,5.80
2023-04-17T01:46:56.865Z,5.70
2023-04-17T01:50:00.325Z,5.80
2023-04-17T01:53:04.045Z,6.03
2023-04-17T01:56:09.386Z,6.43
2023-04-17T01:59:13.049Z,5.50
2023-04-17T02:02:16.698Z,5.83
2023-04-17T02:05:21.130Z,5.50
2023-04-17T02:08:25.249Z,5.23
2023-04-17T02:11:30.257Z,5.10
2023-04-17T02:14:33.766Z,6.07
2023-04-17T02:17:37.250Z,5.87
2023-04-17T02:20:41.079Z,5.43
2023-04-17T02:23:44.602Z,4.97
2023-04-17T02:26:49.853Z,6.50
2023-04-17T02:29:53.472Z,5.70
2023-04-17T02:32:58.283Z,5.90
2023-04-17T02:36:01.975Z,6.00
2023-04-17T02:39:13.169Z,5.63
2023-04-17T02:42:18.306Z,5.87
2023-04-17T02:45:21.959Z,6.07
2023-04-17T02:48:25.565Z,7.40
2023-04-17T02:51:29.750Z,8.17
2023-04-17T02:54:33.277Z,8.17
2023-04-17T02:57:39.148Z,8.00
2023-04-17T03:00:42.763Z,7.33
2023-04-17T03:03:52.916Z,7.90
2023-04-17T03:06:56.821Z,7.53
2023-04-17T03:10:00.522Z,7.57
2023-04-17T03:13:05.646Z,6.97
2023-04-17T03:16:10.145Z,7.67
2023-04-17T03:19:15.344Z,7.87
2023-04-17T03:22:18.845Z,7.10
2023-04-17T03:25:23.357Z,7.90
2023-04-17T03:28:31.688Z,7.37
2023-04-17T03:31:35.325Z,6.87
2023-04-17T03:34:38.924Z,7.30
2023-04-17T03:37:42.523Z,6.47
2023-04-17T03:40:48.311Z,6.30
2023-04-17T03:43:53.330Z,6.77
2023-04-17T03:46:56.947Z,6.07
2023-04-17T03:50:00.936Z,7.17
2023-04-17T03:53:10.054Z,6.43
2023-04-17T03:56:14.773Z,6.63
2023-04-17T03:59:22.442Z,6.27
2023-04-17T04:02:27.238Z,6.93
2023-04-17T04:05:31.599Z,6.53
2023-04-17T04:08:35.556Z,7.00
2023-04-17T04:11:39.079Z,6.50
2023-04-17T04:14:44.333Z,7.60
2023-04-17T04:17:49.128Z,7.60
2023-04-17T04:20:52.896Z,9.30
2023-04-17T04:24:04.042Z,9.10
2023-04-17T04:27:08.001Z,6.03
2023-04-17T04:30:15.715Z,7.03
2023-04-17T04:33:22.239Z,5.97
2023-04-17T04:36:30.173Z,6.50
2023-04-17T04:39:54.292Z,5.80
2023-04-17T04:43:00.498Z,7.37
2023-04-17T04:46:13.112Z,7.40
2023-04-17T04:49:21.469Z,6.57
2023-04-17T04:52:25.197Z,8.00
2023-04-17T04:55:32.092Z,7.80
2023-04-17T04:58:35.919Z,8.17
2023-04-17T05:01:42.054Z,8.53
2023-04-17T05:04:45.811Z,9.00
2023-04-17T05:07:49.881Z,8.63
2023-04-17T05:10:53.515Z,9.67
2023-04-17T05:13:57.038Z,10.17
2023-04-17T05:17:06.700Z,11.70
2023-04-17T05:20:12.445Z,12.80
2023-04-17T05:23:23.568Z,14.30
2023-04-17T05:26:28.332Z,13.73
2023-04-17T05:29:33.221Z,14.07
2023-04-17T05:32:38.594Z,13.70
2023-04-17T05:35:55.360Z,14.97
2023-04-17T05:39:00.248Z,14.80
2023-04-17T05:42:03.788Z,16.03
2023-04-17T05:45:08.160Z,15.23
2023-04-17T05:48:13.062Z,16.47
2023-04-17T05:51:16.709Z,15.33
2023-04-17T05:54:20.225Z,16.73
2023-04-17T05:57:25.143Z,15.30
2023-04-17T06:00:31.185Z,14.70
2023-04-17T06:03:42.380Z,11.83
2023-04-17T06:06:59.317Z,9.30
2023-04-17T06:10:03.190Z,9.60
2023-04-17T06:13:07.130Z,10.60
2023-04-17T06:16:10.809Z,10.93
2023-04-17T06:19:15.914Z,10.47
2023-04-17T06:22:21.562Z,10.87
2023-04-17T06:25:25.192Z,12.03
2023-04-17T06:28:28.752Z,12.30
2023-04-17T06:31:33.468Z,12.30
2023-04-17T06:34:46.025Z,11.53
2023-04-17T06:38:10.151Z,10.50
2023-04-17T06:41:14.667Z,10.20
2023-04-17T06:44:18.619Z,10.20
2023-04-17T06:47:24.203Z,11.30
2023-04-17T06:50:30.252Z,10.63
2023-04-17T06:53:33.803Z,11.50
2023-04-17T06:56:37.269Z,10.80
2023-04-17T06:59:41.147Z,10.53
2023-04-17T07:02:44.937Z,9.40
2023-04-17T07:05:50.806Z,9.00
2023-04-17T07:08:55.617Z,7.90
2023-04-17T07:11:59.895Z,8.40
2023-04-17T07:15:03.637Z,6.60
2023-04-17T07:18:07.709Z,7.90
2023-04-17T07:21:12.682Z,7.53
2023-04-17T07:24:16.281Z,6.53
2023-04-17T07:27:19.883Z,7.00
2023-04-17T07:30:23.653Z,7.33
2023-04-17T07:33:27.438Z,7.70
2023-04-17T07:36:32.566Z,8.23
2023-04-17T07:39:36.296Z,8.47
2023-04-17T07:42:39.993Z,81.30
2023-04-17T07:45:43.728Z,30.17
2023-04-17T07:48:47.988Z,19.90
2023-04-17T07:51:53.083Z,14.73
2023-04-17T07:54:57.547Z,12.40
2023-04-17T07:58:03.729Z,11.30
2023-04-17T08:01:07.482Z,11.43
2023-04-17T08:04:11.440Z,11.53
2023-04-17T08:07:18.484Z,10.50
2023-04-17T08:10:22.301Z,13.37
2023-04-17T08:13:25.976Z,23.07
2023-04-17T08:16:29.754Z,10.60
2023-04-17T08:19:33.419Z,9.33
2023-04-17T08:22:42.102Z,10.10
2023-04-17T08:25:46.384Z,10.07
2023-04-17T08:28:50.269Z,9.43
2023-04-17T08:32:10.347Z,9.77
2023-04-17T08:35:17.486Z,9.17
2023-04-17T08:38:22.616Z,9.70
2023-04-17T08:41:34.410Z,10.17
2023-04-17T08:44:38.331Z,10.67
2023-04-17T08:47:43.414Z,11.90
2023-04-17T08:50:49.810Z,10.23
2023-04-17T08:53:55.150Z,17.97
2023-04-17T08:56:58.793Z,16.70
2023-04-17T09:00:11.994Z,14.60
2023-04-17T09:03:17.002Z,13.43
2023-04-17T09:06:20.810Z,13.53
2023-04-17T09:09:26.582Z,13.73
2023-04-17T09:12:30.353Z,12.00
2023-04-17T09:15:34.269Z,13.33
2023-04-17T09:18:38.871Z,9.70
2023-04-17T09:21:43.897Z,10.80
2023-04-17T09:24:49.725Z,11.00
2023-04-17T09:27:53.536Z,10.10
2023-04-17T09:30:58.145Z,9.77
2023-04-17T09:34:03.484Z,10.20
2023-04-17T09:37:07.115Z,10.43
2023-04-17T09:40:13.442Z,10.40
2023-04-17T09:43:17.216Z,10.63
2023-04-17T09:46:33.028Z,10.30
2023-04-17T09:49:42.545Z,11.40
2023-04-17T09:52:47.566Z,10.50
2023-04-17T09:55:53.495Z,11.57
2023-04-17T09:58:57.771Z,11.23
2023-04-17T10:02:02.812Z,10.27
2023-04-17T10:05:09.162Z,10.67
2023-04-17T10:08:12.849Z,10.53
2023-04-17T10:11:18.179Z,11.10
2023-04-17T10:14:27.162Z,13.27
2023-04-17T10:17:34.509Z,12.87
2023-04-17T10:20:39.654Z,11.97
2023-04-17T10:23:43.605Z,10.63
2023-04-17T10:26:48.778Z,10.67
2023-04-17T10:29:56.269Z,12.57
2023-04-17T10:33:25.965Z,10.70
2023-04-17T10:36:51.279Z,11.00
2023-04-17T10:39:58.189Z,11.87
2023-04-17T10:43:13.928Z,13.27
2023-04-17T10:46:17.940Z,12.77
2023-04-17T10:49:23.202Z,14.70
2023-04-17T10:52:42.299Z,14.10
2023-04-17T10:55:50.869Z,13.90
2023-04-17T10:59:00.758Z,16.27
2023-04-17T11:02:07.870Z,16.97
2023-04-17T11:05:12.693Z,16.33
2023-04-17T11:08:16.826Z,17.93
2023-04-17T11:11:30.464Z,17.93
2023-04-17T11:14:45.431Z,16.60
2023-04-17T11:17:49.653Z,18.73
2023-04-17T11:20:54.131Z,17.63
2023-04-17T11:23:57.842Z,17.63
2023-04-17T11:27:04.120Z,17.13
2023-04-17T11:30:10.549Z,17.27
2023-04-17T11:33:14.330Z,18.07
2023-04-17T11:36:18.182Z,15.13
2023-04-17T11:39:24.160Z,16.50
2023-04-17T11:42:28.933Z,15.07
2023-04-17T11:45:34.859Z,17.13
2023-04-17T11:48:38.628Z,16.83
2023-04-17T11:51:46.450Z,17.67
2023-04-17T11:54:58.585Z,16.90
2023-04-17T11:58:04.308Z,17.17
2023-04-17T12:01:09.508Z,16.03
2023-04-17T12:04:22.176Z,16.13
2023-04-17T12:07:26.370Z,13.93
2023-04-17T12:10:43.994Z,13.20
2023-04-17T12:13:47.660Z,13.43
2023-04-17T12:16:52.713Z,10.37
2023-04-17T12:19:56.571Z,8.00
2023-04-17T12:23:00.292Z,5.60
2023-04-17T12:26:04.260Z,4.93
2023-04-17T12:29:08.335Z,4.90
2023-04-17T12:32:13.602Z,6.10
2023-04-17T12:35:19.012Z,6.17
2023-04-17T12:38:23.531Z,4.77
2023-04-17T12:41:27.523Z,5.20
2023-04-17T12:44:31.324Z,6.23
2023-04-17T12:47:36.618Z,6.13
2023-04-17T12:50:42.763Z,6.87
2023-04-17T12:53:48.003Z,5.57
2023-04-17T12:56:52.585Z,5.50
2023-04-17T12:59:56.822Z,4.90
2023-04-17T13:03:02.468Z,4.50
2023-04-17T13:06:06.307Z,4.40
2023-04-17T13:09:10.507Z,5.17
2023-04-17T13:12:15.648Z,5.30
2023-04-17T13:15:19.499Z,5.80
2023-04-17T13:18:24.717Z,5.97
2023-04-17T13:21:28.488Z,6.53
2023-04-17T13:24:32.931Z,6.80
2023-04-17T13:27:36.648Z,7.10
2023-04-17T13:30:40.342Z,6.67
2023-04-17T13:33:45.600Z,6.60
2023-04-17T13:36:50.008Z,5.67
2023-04-17T13:39:53.782Z,5.17
2023-04-17T13:42:57.399Z,5.63
2023-04-17T13:46:01.247Z,6.07
2023-04-17T13:49:06.518Z,6.03
2023-04-17T13:52:10.149Z,5.80
2023-04-17T13:55:14.845Z,5.93
2023-04-17T13:58:18.650Z,6.20
2023-04-17T14:01:22.475Z,5.67
2023-04-17T14:04:27.946Z,5.93
2023-04-17T14:07:31.910Z,6.20
2023-04-17T14:10:35.755Z,5.70
2023-04-17T14:13:39.708Z,6.33
2023-04-17T14:16:43.520Z,8.00
2023-04-17T14:19:48.755Z,6.13
2023-04-17T14:22:54.532Z,5.80
2023-04-17T14:25:58.308Z,5.17
2023-04-17T14:29:02.019Z,8.53
2023-04-17T14:32:06.333Z,4.20
2023-04-17T14:35:11.784Z,5.50
2023-04-17T14:38:15.544Z,4.03
2023-04-17T14:41:20.045Z,6.27
2023-04-17T14:44:23.772Z,3.90
2023-04-17T14:47:29.919Z,5.53
2023-04-17T14:50:35.275Z,5.50
2023-04-17T14:53:39.008Z,6.10
2023-04-17T14:56:42.662Z,2.87
2023-04-17T14:59:46.404Z,3.20
2023-04-17T15:02:50.358Z,3.03
2023-04-17T15:05:56.941Z,5.17
2023-04-17T15:09:00.612Z,5.43
2023-04-17T15:12:04.414Z,5.50
2023-04-17T15:15:10.296Z,5.20
2023-04-17T15:18:13.963Z,5.00
2023-04-17T15:21:19.151Z,4.57
2023-04-17T15:24:22.901Z,5.03
2023-04-17T15:27:27.015Z,4.97
2023-04-17T15:30:30.816Z,5.23
2023-04-17T15:33:34.825Z,4.63
2023-04-17T15:36:40.020Z,5.13
2023-04-17T15:39:44.173Z,6.80
2023-04-17T15:42:47.922Z,4.80
2023-04-17T15:45:53.727Z,6.00
2023-04-17T15:49:08.460Z,4.17
2023-04-17T15:52:14.074Z,4.30
2023-04-17T15:55:17.886Z,5.40
2023-04-17T15:58:21.611Z,7.27
2023-04-17T16:01:25.380Z,5.27
2023-04-17T16:04:29.275Z,5.10
2023-04-17T16:07:34.768Z,5.07
2023-04-17T16:10:38.682Z,5.77
2023-04-17T16:13:42.375Z,6.43
2023-04-17T16:16:46.047Z,7.37
2023-04-17T16:19:50.747Z,6.20
2023-04-17T16:22:56.408Z,6.37
2023-04-17T16:26:00.158Z,7.23
2023-04-17T16:29:03.836Z,6.30
2023-04-17T16:32:07.663Z,6.07
2023-04-17T16:35:11.585Z,8.53
2023-04-17T16:38:16.710Z,7.33
2023-04-17T16:41:20.642Z,5.83
2023-04-17T16:44:24.301Z,5.40
2023-04-17T16:47:30.210Z,6.50
2023-04-17T16:50:34.096Z,6.33
2023-04-17T16:53:39.446Z,6.60
2023-04-17T16:56:43.392Z,7.60
2023-04-17T16:59:47.097Z,9.97
2023-04-17T17:02:50.919Z,8.80
2023-04-17T17:05:55.355Z,8.40
2023-04-17T17:09:00.816Z,8.37
2023-04-17T17:12:04.871Z,8.20
2023-04-17T17:15:09.575Z,7.67
2023-04-17T17:18:13.229Z,7.83
2023-04-17T17:21:17.231Z,8.27
2023-04-17T17:24:22.413Z,6.70
2023-04-17T17:27:26.112Z,6.67
2023-04-17T17:30:29.775Z,6.47
2023-04-17T17:33:33.460Z,5.50
2023-04-17T17:36:37.173Z,6.60
2023-04-17T17:39:42.371Z,6.53
2023-04-17T17:42:46.598Z,5.70
2023-04-17T17:45:50.653Z,6.30
2023-04-17T17:48:54.505Z,6.10
2023-04-17T17:51:58.098Z,6.70
2023-04-17T17:55:03.359Z,6.27
2023-04-17T17:58:08.086Z,7.13
2023-04-17T18:01:11.821Z,7.10
2023-04-17T18:04:15.746Z,5.77
2023-04-17T18:07:19.878Z,6.27
2023-04-17T18:10:25.114Z,5.77
2023-04-17T18:13:28.793Z,6.93
2023-04-17T18:16:33.178Z,5.83
2023-04-17T18:19:40.965Z,5.33
2023-04-17T18:22:44.917Z,4.70
2023-04-17T18:25:59.301Z,5.83
2023-04-17T18:29:03.043Z,5.67
2023-04-17T18:32:06.779Z,6.43
2023-04-17T18:35:11.016Z,7.87
2023-04-17T18:38:14.725Z,8.63
2023-04-17T18:41:20.595Z,8.83
2023-04-17T18:44:24.394Z,11.97
2023-04-17T18:47:28.235Z,12.67
2023-04-17T18:50:31.976Z,12.83
2023-04-17T18:53:35.644Z,15.33
2023-04-17T18:56:40.725Z,14.43
2023-04-17T18:59:44.307Z,15.63
2023-04-17T19:02:48.687Z,16.40
2023-04-17T19:05:52.499Z,15.17
2023-04-17T19:08:57.114Z,14.97
2023-04-17T19:12:03.061Z,15.87
2023-04-17T19:15:08.325Z,14.23
2023-04-17T19:18:12.044Z,11.27
2023-04-17T19:21:17.258Z,12.03
2023-04-17T19:24:21.064Z,12.00
2023-04-17T19:27:27.171Z,10.43
2023-04-17T19:30:31.064Z,11.13
2023-04-17T19:33:35.186Z,12.20
2023-04-17T19:36:38.978Z,12.17
2023-04-17T19:39:42.722Z,9.90
2023-04-17T19:42:47.772Z,9.40
2023-04-17T19:45:51.458Z,8.83
2023-04-17T19:48:55.176Z,9.20
2023-04-17T19:51:59.394Z,8.60
2023-04-17T19:55:04.781Z,8.13
2023-04-17T19:58:09.973Z,7.17
2023-04-17T20:01:13.607Z,9.43
2023-04-17T20:04:17.591Z,8.57
2023-04-17T20:07:21.355Z,7.90
2023-04-17T20:10:25.316Z,7.70
2023-04-17T20:13:30.516Z,7.90
2023-04-17T20:16:34.303Z,8.37
2023-04-17T20:19:38.147Z,8.77
2023-04-17T20:22:41.876Z,9.00
2023-04-17T20:25:46.714Z,9.80
2023-04-17T20:28:51.977Z,11.07
2023-04-17T20:31:55.909Z,11.57
2023-04-17T20:34:59.693Z,12.77
2023-04-17T20:38:03.541Z,12.17
2023-04-17T20:41:07.605Z,9.10
2023-04-17T20:44:12.970Z,9.13
2023-04-17T20:47:16.808Z,7.23
2023-04-17T20:50:21.432Z,6.77
2023-04-17T20:53:25.140Z,6.40
2023-04-17T20:56:28.802Z,5.63
2023-04-17T20:59:34.515Z,6.60
2023-04-17T21:02:38.251Z,5.53
2023-04-17T21:05:42.046Z,5.83
2023-04-17T21:08:45.850Z,5.90
2023-04-17T21:11:49.851Z,5.63
2023-04-17T21:14:55.032Z,5.70
2023-04-17T21:17:58.697Z,4.90
2023-04-17T21:21:02.410Z,4.97
2023-04-17T21:24:06.314Z,6.27
2023-04-17T21:27:10.683Z,6.10
2023-04-17T21:30:16.524Z,5.47
2023-04-17T21:33:20.493Z,5.40
2023-04-17T21:36:24.391Z,4.97
2023-04-17T21:39:27.928Z,4.83
2023-04-17T21:42:31.668Z,5.27
2023-04-17T21:45:36.916Z,5.60
2023-04-17T21:48:40.945Z,4.90
2023-04-17T21:51:44.644Z,5.23
2023-04-17T21:54:48.271Z,4.87
2023-04-17T21:57:52.048Z,5.70
2023-04-17T22:00:57.132Z,4.90
2023-04-17T22:04:00.962Z,5.50
2023-04-17T22:07:04.752Z,5.60
2023-04-17T22:10:10.041Z,5.80
2023-04-17T22:13:15.156Z,5.30
2023-04-17T22:16:20.500Z,6.77
2023-04-17T22:19:24.474Z,5.77
2023-04-17T22:22:28.230Z,6.57
2023-04-17T22:25:31.885Z,6.30
2023-04-17T22:28:35.721Z,5.90
2023-04-17T22:31:41.253Z,6.53
2023-04-17T22:34:49.025Z,6.80
2023-04-17T22:37:52.740Z,6.27
2023-04-17T22:40:56.751Z,7.53
2023-04-17T22:44:00.620Z,7.50
2023-04-17T22:47:07.024Z,7.90
2023-04-17T22:50:12.004Z,8.00
2023-04-17T22:53:15.769Z,7.80
2023-04-17T22:56:19.418Z,7.40
2023-04-17T22:59:23.163Z,8.13
2023-04-17T23:02:28.560Z,7.97
2023-04-17T23:05:32.352Z,7.37
2023-04-17T23:08:36.040Z,6.53
2023-04-17T23:11:39.705Z,6.33
2023-04-17T23:14:44.000Z,6.70
2023-04-17T23:17:49.240Z,6.83
2023-04-17T23:20:52.880Z,7.17
2023-04-17T23:23:56.987Z,7.23
2023-04-17T23:27:00.585Z,7.17
2023-04-17T23:30:04.295Z,8.07
2023-04-17T23:33:09.992Z,8.53
2023-04-17T23:36:14.668Z,9.57
2023-04-17T23:39:18.349Z,10.50
2023-04-17T23:42:21.943Z,10.47
2023-04-17T23:45:25.468Z,13.17
2023-04-17T23:48:30.480Z,12.43
2023-04-17T23:51:33.974Z,9.33
2023-04-17T23:54:37.712Z,11.77
2023-04-17T23:57:41.516Z,13.13
